createdAt,value
2018-12-09T00:01:18.709Z,8.90
2018-12-09T00:03:46.416Z,8.80
2018-12-09T00:06:14.246Z,8.60
2018-12-09T00:08:42.044Z,8.50
2018-12-09T00:11:10.056Z,8.40
2018-12-09T00:13:37.803Z,8.40
2018-12-09T00:16:05.493Z,8.40
2018-12-09T00:18:33.307Z,8.40
2018-12-09T00:21:01.639Z,8.40
2018-12-09T00:23:29.456Z,8.30
2018-12-09T00:25:57.170Z,8.50
2018-12-09T00:28:25.164Z,8.50
2018-12-09T00:30:52.974Z,8.50
2018-12-09T00:33:20.711Z,8.60
2018-12-09T00:35:48.438Z,8.50
2018-12-09T00:38:16.232Z,8.50
2018-12-09T00:40:43.965Z,8.50
2018-12-09T00:43:11.702Z,8.40
2018-12-09T00:45:39.510Z,8.40
2018-12-09T00:48:07.312Z,8.40
2018-12-09T00:50:35.086Z,8.40
2018-12-09T00:53:02.793Z,8.40
2018-12-09T00:55:30.946Z,8.40
2018-12-09T00:57:58.824Z,8.30
2018-12-09T01:00:29.784Z,8.30
2018-12-09T01:02:57.870Z,8.20
2018-12-09T01:05:25.672Z,8.20
2018-12-09T01:07:53.493Z,8.10
2018-12-09T01:10:21.316Z,8.00
2018-12-09T01:12:49.133Z,7.90
2018-12-09T01:15:16.950Z,7.70
2018-12-09T01:17:44.797Z,7.60
2018-12-09T01:20:12.593Z,7.50
2018-12-09T01:22:40.397Z,7.40
2018-12-09T01:25:08.245Z,7.40
2018-12-09T01:27:36.247Z,7.40
2018-12-09T01:30:04.205Z,7.40
2018-12-09T01:32:32.172Z,7.40
2018-12-09T01:34:59.910Z,7.30
2018-12-09T01:37:27.605Z,7.40
2018-12-09T01:39:55.387Z,7.30
2018-12-09T01:42:23.125Z,7.40
2018-12-09T01:44:51.787Z,7.50
2018-12-09T01:47:19.706Z,7.50
2018-12-09T01:49:47.554Z,7.50
2018-12-09T01:52:15.281Z,7.60
2018-12-09T01:54:43.186Z,7.60
2018-12-09T01:57:11.014Z,7.60
2018-12-09T01:59:38.723Z,7.70
2018-12-09T02:02:06.721Z,7.80
2018-12-09T02:04:35.757Z,7.80
2018-12-09T02:07:04.011Z,7.70
2018-12-09T02:09:31.853Z,7.70
2018-12-09T02:11:59.626Z,7.70
2018-12-09T02:14:27.412Z,7.70
2018-12-09T02:16:55.339Z,7.80
2018-12-09T02:19:23.037Z,7.90
2018-12-09T02:21:50.841Z,8.00
2018-12-09T02:24:19.054Z,8.00
2018-12-09T02:26:46.821Z,8.00
2018-12-09T02:29:14.909Z,7.90
2018-12-09T02:31:42.873Z,7.80
2018-12-09T02:34:10.650Z,7.80
2018-12-09T02:36:38.544Z,7.80
2018-12-09T02:39:06.604Z,7.70
2018-12-09T02:41:34.414Z,7.60
2018-12-09T02:44:02.322Z,7.50
2018-12-09T02:46:30.240Z,7.40
2018-12-09T02:48:58.012Z,7.40
2018-12-09T02:51:25.785Z,7.60
2018-12-09T02:53:53.633Z,7.50
2018-12-09T02:56:21.348Z,7.50
2018-12-09T02:58:49.347Z,7.50
2018-12-09T03:01:17.077Z,7.50
2018-12-09T03:03:45.159Z,7.40
2018-12-09T03:06:13.043Z,7.50
2018-12-09T03:08:41.057Z,7.50
2018-12-09T03:11:08.971Z,7.50
2018-12-09T03:13:36.785Z,7.50
2018-12-09T03:16:04.592Z,7.50
2018-12-09T03:18:32.768Z,7.60
2018-12-09T03:21:00.501Z,7.60
2018-12-09T03:23:28.348Z,7.70
2018-12-09T03:25:56.088Z,7.80
2018-12-09T03:28:23.921Z,7.80
2018-12-09T03:30:51.703Z,7.80
2018-12-09T03:33:19.413Z,7.90
2018-12-09T03:35:47.284Z,7.90
2018-12-09T03:38:14.965Z,8.00
2018-12-09T03:40:42.925Z,7.90
2018-12-09T03:43:10.657Z,8.00
2018-12-09T03:45:38.405Z,8.00
2018-12-09T03:48:06.194Z,8.00
2018-12-09T03:50:33.960Z,8.00
2018-12-09T03:53:01.686Z,8.10
2018-12-09T03:55:29.548Z,8.10
2018-12-09T03:57:57.534Z,8.10
2018-12-09T04:00:25.350Z,8.10
2018-12-09T04:02:53.093Z,8.10
2018-12-09T04:05:20.845Z,8.10
2018-12-09T04:07:48.645Z,8.10
2018-12-09T04:10:16.761Z,8.10
2018-12-09T04:12:44.510Z,8.10
2018-12-09T04:15:12.620Z,8.10
2018-12-09T04:17:40.602Z,8.10
2018-12-09T04:20:08.440Z,8.10
2018-12-09T04:22:36.570Z,8.20
2018-12-09T04:25:04.466Z,8.20
2018-12-09T04:27:32.218Z,8.20
2018-12-09T04:29:59.984Z,8.20
2018-12-09T04:32:27.853Z,8.10
2018-12-09T04:34:55.860Z,8.10
2018-12-09T04:37:23.649Z,8.00
2018-12-09T04:39:51.453Z,8.00
2018-12-09T04:42:19.219Z,7.90
2018-12-09T04:44:46.968Z,7.90
2018-12-09T04:47:14.780Z,7.90
2018-12-09T04:49:42.537Z,7.80
2018-12-09T04:52:10.262Z,7.80
2018-12-09T04:54:38.295Z,7.70
2018-12-09T04:57:06.138Z,7.70
2018-12-09T04:59:35.064Z,7.60
2018-12-09T05:02:03.010Z,7.60
2018-12-09T05:04:30.765Z,7.50
2018-12-09T05:06:58.455Z,7.50
2018-12-09T05:09:26.193Z,7.40
2018-12-09T05:11:54.022Z,7.40
2018-12-09T05:14:23.082Z,7.40
2018-12-09T05:16:50.873Z,7.40
2018-12-09T05:19:18.728Z,7.40
2018-12-09T05:21:46.429Z,7.40
2018-12-09T05:24:14.244Z,7.40
2018-12-09T05:26:41.925Z,7.40
2018-12-09T05:29:09.716Z,7.40
2018-12-09T05:31:37.433Z,7.40
2018-12-09T05:34:05.144Z,7.30
2018-12-09T05:36:32.960Z,7.40
2018-12-09T05:39:00.684Z,7.40
2018-12-09T05:41:28.514Z,7.40
2018-12-09T05:43:56.364Z,7.40
2018-12-09T05:46:24.165Z,7.40
2018-12-09T05:48:51.996Z,7.30
2018-12-09T05:51:19.729Z,7.30
2018-12-09T05:53:47.514Z,7.30
2018-12-09T05:56:15.245Z,7.30
2018-12-09T05:58:43.014Z,7.30
2018-12-09T06:01:10.730Z,7.20
2018-12-09T06:03:38.449Z,7.20
2018-12-09T06:06:06.993Z,7.20
2018-12-09T06:08:34.714Z,7.20
2018-12-09T06:11:02.476Z,7.20
2018-12-09T06:13:30.279Z,7.20
2018-12-09T06:15:58.032Z,7.20
2018-12-09T06:18:25.885Z,7.20
2018-12-09T06:20:53.708Z,7.20
2018-12-09T06:23:21.466Z,7.20
2018-12-09T06:25:49.212Z,7.20
2018-12-09T06:28:16.978Z,7.10
2018-12-09T06:30:44.825Z,7.10
2018-12-09T06:33:12.913Z,7.10
2018-12-09T06:35:40.962Z,7.10
2018-12-09T06:38:08.934Z,7.10
2018-12-09T06:40:36.615Z,7.20
2018-12-09T06:43:04.378Z,7.20
2018-12-09T06:45:32.413Z,7.20
2018-12-09T06:48:00.244Z,7.20
2018-12-09T06:50:28.230Z,7.20
2018-12-09T06:52:56.085Z,7.20
2018-12-09T06:55:24.015Z,7.20
2018-12-09T06:57:51.785Z,7.20
2018-12-09T07:00:19.512Z,7.20
2018-12-09T07:02:47.838Z,7.20
2018-12-09T07:05:16.159Z,7.20
2018-12-09T07:07:44.168Z,7.20
2018-12-09T07:10:11.921Z,7.20
2018-12-09T07:12:39.952Z,7.20
2018-12-09T07:15:08.225Z,7.20
2018-12-09T07:17:35.936Z,7.30
2018-12-09T07:20:04.101Z,7.30
2018-12-09T07:22:31.852Z,7.20
2018-12-09T07:24:59.696Z,7.30
2018-12-09T07:27:27.690Z,7.20
2018-12-09T07:30:02.061Z,7.20
2018-12-09T07:32:26.423Z,7.20
2018-12-09T07:34:54.182Z,7.20
2018-12-09T07:37:22.901Z,7.20
2018-12-09T07:39:50.650Z,7.20
2018-12-09T07:42:18.386Z,7.20
2018-12-09T07:44:46.568Z,7.20
2018-12-09T07:47:14.407Z,7.30
2018-12-09T07:49:45.822Z,7.20
2018-12-09T07:52:14.181Z,7.30
2018-12-09T07:54:41.954Z,7.30
2018-12-09T07:57:10.601Z,7.30
2018-12-09T07:59:38.503Z,7.40
2018-12-09T08:02:06.260Z,7.40
2018-12-09T08:04:34.247Z,7.40
2018-12-09T08:07:03.522Z,7.40
2018-12-09T08:09:31.415Z,7.40
2018-12-09T08:12:01.530Z,7.50
2018-12-09T08:14:29.724Z,7.50
2018-12-09T08:16:58.437Z,7.50
2018-12-09T08:19:26.367Z,7.50
2018-12-09T08:21:54.192Z,7.50
2018-12-09T08:24:22.554Z,7.50
2018-12-09T08:26:50.271Z,7.50
2018-12-09T08:29:18.034Z,7.50
2018-12-09T08:31:45.777Z,7.50
2018-12-09T08:34:13.508Z,7.50
2018-12-09T08:36:41.270Z,7.50
2018-12-09T08:39:09.050Z,7.50
2018-12-09T08:41:36.772Z,7.50
2018-12-09T08:44:05.603Z,7.50
2018-12-09T08:46:33.661Z,7.40
2018-12-09T08:49:01.378Z,7.40
2018-12-09T08:51:29.223Z,7.40
2018-12-09T08:53:57.089Z,7.40
2018-12-09T08:56:25.114Z,7.40
2018-12-09T08:58:52.988Z,7.40
2018-12-09T09:01:20.928Z,7.40
2018-12-09T09:03:48.676Z,7.40
2018-12-09T09:06:16.562Z,7.40
2018-12-09T09:08:44.363Z,7.40
2018-12-09T09:11:12.089Z,7.40
2018-12-09T09:13:39.840Z,7.20
2018-12-09T09:16:07.707Z,6.70
2018-12-09T09:18:35.430Z,6.30
2018-12-09T09:21:03.706Z,6.00
2018-12-09T09:23:31.560Z,5.80
2018-12-09T09:25:59.310Z,5.80
2018-12-09T09:28:27.396Z,5.70
2018-12-09T09:30:55.139Z,5.70
2018-12-09T09:33:22.868Z,5.70
2018-12-09T09:35:50.710Z,5.70
2018-12-09T09:38:18.433Z,5.80
2018-12-09T09:40:46.156Z,5.80
2018-12-09T09:43:14.163Z,5.80
2018-12-09T09:45:41.947Z,5.80
2018-12-09T09:48:10.865Z,5.80
2018-12-09T09:50:38.592Z,5.80
2018-12-09T09:53:06.365Z,5.80
2018-12-09T09:55:34.147Z,5.80
2018-12-09T09:58:01.887Z,5.80
2018-12-09T10:00:29.615Z,5.80
2018-12-09T10:02:57.349Z,5.90
2018-12-09T10:05:25.248Z,5.90
2018-12-09T10:07:53.305Z,5.90
2018-12-09T10:10:22.591Z,6.00
2018-12-09T10:12:50.303Z,6.00
2018-12-09T10:15:18.085Z,6.00
2018-12-09T10:17:45.826Z,6.00
2018-12-09T10:20:13.575Z,6.00
2018-12-09T10:22:41.466Z,6.10
2018-12-09T10:25:09.199Z,6.10
2018-12-09T10:27:36.901Z,6.20
2018-12-09T10:30:06.404Z,6.30
2018-12-09T10:32:34.264Z,6.20
2018-12-09T10:35:01.974Z,6.20
2018-12-09T10:37:29.727Z,6.20
2018-12-09T10:39:57.623Z,6.20
2018-12-09T10:42:25.327Z,6.20
2018-12-09T10:44:53.057Z,6.30
2018-12-09T10:47:20.854Z,6.20
2018-12-09T10:49:48.595Z,6.20
2018-12-09T10:52:16.421Z,6.20
2018-12-09T10:54:44.159Z,6.10
2018-12-09T10:57:11.922Z,6.10
2018-12-09T10:59:39.711Z,6.10
2018-12-09T11:02:13.221Z,6.10
2018-12-09T11:04:41.094Z,6.10
2018-12-09T11:07:08.843Z,6.00
2018-12-09T11:09:36.860Z,6.00
2018-12-09T11:12:04.572Z,6.00
2018-12-09T11:14:32.334Z,6.00
2018-12-09T11:17:00.169Z,5.90
2018-12-09T11:19:27.896Z,5.90
2018-12-09T11:21:55.631Z,5.90
2018-12-09T11:24:23.786Z,5.90
2018-12-09T11:26:51.900Z,6.00
2018-12-09T11:29:19.598Z,6.10
2018-12-09T11:31:47.319Z,6.10
2018-12-09T11:34:15.092Z,6.10
2018-12-09T11:36:42.897Z,6.20
2018-12-09T11:39:10.610Z,6.20
2018-12-09T11:41:38.374Z,6.20
2018-12-09T11:44:06.125Z,6.20
2018-12-09T11:46:33.871Z,6.20
2018-12-09T11:49:01.594Z,6.30
2018-12-09T11:51:29.439Z,6.30
2018-12-09T11:53:57.179Z,6.30
2018-12-09T11:56:24.898Z,6.40
2018-12-09T11:58:52.628Z,6.50
2018-12-09T12:01:20.377Z,6.50
2018-12-09T12:03:48.383Z,6.60
2018-12-09T12:06:16.200Z,6.60
2018-12-09T12:08:43.985Z,6.50
2018-12-09T12:11:11.805Z,6.60
2018-12-09T12:13:39.551Z,6.60
2018-12-09T12:16:07.255Z,6.70
2018-12-09T12:18:34.970Z,6.70
2018-12-09T12:21:02.696Z,6.70
2018-12-09T12:23:30.444Z,6.70
2018-12-09T12:25:58.457Z,6.70
2018-12-09T12:28:26.473Z,6.70
2018-12-09T12:30:54.190Z,6.80
2018-12-09T12:33:21.921Z,6.70
2018-12-09T12:35:49.645Z,6.80
2018-12-09T12:38:17.370Z,6.70
2018-12-09T12:40:45.103Z,6.60
2018-12-09T12:43:12.873Z,6.70
2018-12-09T12:45:42.102Z,6.60
2018-12-09T12:48:09.816Z,6.70
2018-12-09T12:50:37.779Z,6.70
2018-12-09T12:53:05.477Z,6.70
2018-12-09T12:55:33.189Z,6.80
2018-12-09T12:58:00.947Z,6.90
2018-12-09T13:00:29.011Z,7.00
2018-12-09T13:02:56.846Z,7.00
2018-12-09T13:05:24.561Z,7.00
2018-12-09T13:07:52.354Z,7.10
2018-12-09T13:10:20.076Z,7.10
2018-12-09T13:12:47.826Z,7.20
2018-12-09T13:15:16.126Z,7.20
2018-12-09T13:17:43.868Z,7.20
2018-12-09T13:20:11.567Z,7.30
2018-12-09T13:22:39.339Z,7.30
2018-12-09T13:25:07.121Z,7.40
2018-12-09T13:27:34.841Z,7.40
2018-12-09T13:30:02.739Z,7.50
2018-12-09T13:32:30.492Z,7.60
2018-12-09T13:34:58.291Z,7.50
2018-12-09T13:37:26.018Z,7.50
2018-12-09T13:39:53.733Z,7.50
2018-12-09T13:42:21.470Z,7.50
2018-12-09T13:44:49.284Z,7.40
2018-12-09T13:47:17.033Z,7.40
2018-12-09T13:49:44.725Z,7.50
2018-12-09T13:52:12.477Z,7.50
2018-12-09T13:54:40.186Z,7.50
2018-12-09T13:57:07.909Z,7.40
2018-12-09T13:59:35.670Z,7.50
2018-12-09T14:02:03.393Z,7.50
2018-12-09T14:04:31.100Z,7.50
2018-12-09T14:06:58.805Z,7.40
2018-12-09T14:09:26.562Z,7.40
2018-12-09T14:11:54.339Z,7.40
2018-12-09T14:14:22.126Z,7.40
2018-12-09T14:16:49.829Z,7.30
2018-12-09T14:19:17.673Z,7.20
2018-12-09T14:21:45.393Z,7.10
2018-12-09T14:24:13.144Z,7.10
2018-12-09T14:26:40.869Z,7.20
2018-12-09T14:29:08.603Z,7.20
2018-12-09T14:31:36.596Z,7.20
2018-12-09T14:34:04.329Z,7.20
2018-12-09T14:36:32.030Z,7.30
2018-12-09T14:38:59.773Z,7.40
2018-12-09T14:41:27.484Z,7.40
2018-12-09T14:43:55.228Z,7.40
2018-12-09T14:46:22.942Z,7.50
2018-12-09T14:48:50.634Z,7.40
2018-12-09T14:51:18.362Z,7.40
2018-12-09T14:53:46.272Z,7.40
2018-12-09T14:56:14.212Z,7.40
2018-12-09T14:58:41.936Z,7.40
2018-12-09T15:01:09.709Z,7.50
2018-12-09T15:03:37.425Z,7.40
2018-12-09T15:06:05.347Z,7.40
2018-12-09T15:08:33.062Z,7.40
2018-12-09T15:11:00.793Z,7.40
2018-12-09T15:13:28.532Z,7.50
2018-12-09T15:15:57.120Z,7.50
2018-12-09T15:18:24.840Z,7.50
2018-12-09T15:20:52.615Z,7.40
2018-12-09T15:23:20.394Z,7.40
2018-12-09T15:25:48.430Z,7.40
2018-12-09T15:28:16.162Z,7.40
2018-12-09T15:30:43.961Z,7.30
2018-12-09T15:33:12.066Z,7.40
2018-12-09T15:35:39.804Z,7.40
2018-12-09T15:38:07.618Z,7.40
2018-12-09T15:40:35.387Z,7.40
2018-12-09T15:43:03.224Z,7.40
2018-12-09T15:45:31.021Z,7.50
2018-12-09T15:47:58.853Z,7.50
2018-12-09T15:50:27.169Z,7.40
2018-12-09T15:52:54.911Z,7.40
2018-12-09T15:55:22.659Z,7.40
2018-12-09T15:57:50.386Z,7.40
2018-12-09T16:00:18.128Z,7.30
2018-12-09T16:02:45.848Z,7.20
2018-12-09T16:05:13.710Z,7.10
2018-12-09T16:07:41.450Z,7.00
2018-12-09T16:10:09.204Z,7.10
2018-12-09T16:12:37.006Z,7.10
2018-12-09T16:15:05.162Z,7.10
2018-12-09T16:17:32.853Z,7.10
2018-12-09T16:20:00.680Z,7.10
2018-12-09T16:22:28.587Z,7.10
2018-12-09T16:24:56.682Z,7.10
2018-12-09T16:27:24.520Z,7.20
2018-12-09T16:29:52.318Z,7.20
2018-12-09T16:32:20.040Z,7.20
2018-12-09T16:34:48.194Z,7.20
2018-12-09T16:37:15.914Z,7.20
2018-12-09T16:39:44.000Z,7.20
2018-12-09T16:42:11.834Z,7.20
2018-12-09T16:44:39.613Z,7.20
2018-12-09T16:47:07.329Z,7.20
2018-12-09T16:49:35.129Z,7.10
2018-12-09T16:52:02.968Z,7.10
2018-12-09T16:54:30.681Z,7.10
2018-12-09T16:56:58.430Z,7.10
2018-12-09T16:59:26.153Z,7.10
2018-12-09T17:01:53.871Z,7.10
2018-12-09T17:04:21.641Z,7.00
2018-12-09T17:06:49.381Z,7.10
2018-12-09T17:09:17.123Z,7.00
2018-12-09T17:11:44.859Z,6.90
2018-12-09T17:14:12.682Z,6.90
2018-12-09T17:16:40.426Z,6.80
2018-12-09T17:19:08.394Z,6.70
2018-12-09T17:21:36.255Z,6.70
2018-12-09T17:24:04.199Z,6.70
2018-12-09T17:26:32.040Z,6.60
2018-12-09T17:29:05.404Z,6.50
2018-12-09T17:31:29.633Z,6.50
2018-12-09T17:33:57.483Z,6.60
2018-12-09T17:36:25.175Z,6.60
2018-12-09T17:38:52.897Z,6.70
2018-12-09T17:41:24.911Z,6.80
2018-12-09T17:43:50.397Z,6.80
2018-12-09T17:46:18.136Z,6.90
2018-12-09T17:48:45.869Z,6.90
2018-12-09T17:51:13.754Z,6.90
2018-12-09T17:53:41.513Z,6.90
2018-12-09T17:56:09.205Z,6.90
2018-12-09T17:58:36.961Z,6.90
2018-12-09T18:01:06.757Z,6.80
2018-12-09T18:03:34.693Z,6.80
2018-12-09T18:06:02.397Z,6.80
2018-12-09T18:08:30.190Z,6.80
2018-12-09T18:10:57.994Z,6.80
2018-12-09T18:13:25.739Z,6.80
2018-12-09T18:15:59.949Z,6.80
2018-12-09T18:18:27.742Z,6.80
2018-12-09T18:20:55.943Z,6.80
2018-12-09T18:23:23.735Z,6.80
2018-12-09T18:25:51.552Z,6.80
2018-12-09T18:28:19.286Z,6.80
2018-12-09T18:30:47.534Z,6.80
2018-12-09T18:33:16.392Z,6.80
2018-12-09T18:35:44.359Z,6.80
2018-12-09T18:38:12.530Z,6.70
2018-12-09T18:40:40.269Z,6.60
2018-12-09T18:43:08.143Z,6.60
2018-12-09T18:45:35.897Z,6.50
2018-12-09T18:48:04.195Z,6.50
2018-12-09T18:50:31.942Z,6.40
2018-12-09T18:52:59.848Z,6.30
2018-12-09T18:55:27.806Z,6.30
2018-12-09T18:57:55.667Z,6.20
2018-12-09T19:00:23.426Z,6.10
2018-12-09T19:02:51.185Z,6.10
2018-12-09T19:05:18.911Z,6.00
2018-12-09T19:07:46.835Z,6.00
2018-12-09T19:10:14.669Z,6.00
2018-12-09T19:12:43.022Z,5.90
2018-12-09T19:15:11.049Z,5.90
2018-12-09T19:17:38.952Z,6.00
2018-12-09T19:20:06.985Z,6.00
2018-12-09T19:22:35.156Z,5.90
2018-12-09T19:25:04.648Z,5.90
2018-12-09T19:27:32.394Z,6.00
2018-12-09T19:30:02.116Z,5.90
2018-12-09T19:32:31.734Z,5.90
2018-12-09T19:34:59.462Z,5.90
2018-12-09T19:37:27.311Z,5.80
2018-12-09T19:39:55.095Z,5.80
2018-12-09T19:42:22.962Z,5.90
2018-12-09T19:44:50.816Z,5.90
2018-12-09T19:47:18.601Z,6.00
2018-12-09T19:49:48.251Z,6.10
2018-12-09T19:52:16.993Z,6.20
2018-12-09T19:54:45.072Z,6.20
2018-12-09T19:57:12.992Z,6.30
2018-12-09T19:59:41.108Z,6.30
2018-12-09T20:02:08.924Z,6.20
2018-12-09T20:04:36.727Z,6.00
2018-12-09T20:07:04.483Z,5.90
2018-12-09T20:09:32.497Z,5.80
2018-12-09T20:12:00.195Z,5.70
2018-12-09T20:14:27.974Z,5.60
2018-12-09T20:16:55.873Z,5.50
2018-12-09T20:19:23.685Z,5.50
2018-12-09T20:21:51.502Z,5.40
2018-12-09T20:24:19.327Z,5.40
2018-12-09T20:26:47.591Z,5.40
2018-12-09T20:29:15.418Z,5.40
2018-12-09T20:31:43.424Z,5.40
2018-12-09T20:34:11.227Z,5.40
2018-12-09T20:36:38.993Z,5.40
2018-12-09T20:39:06.789Z,5.30
2018-12-09T20:41:34.721Z,5.30
2018-12-09T20:44:02.438Z,5.30
2018-12-09T20:46:30.325Z,5.30
2018-12-09T20:48:58.080Z,5.20
2018-12-09T20:51:25.915Z,5.20
2018-12-09T20:53:53.641Z,5.20
2018-12-09T20:56:21.593Z,5.10
2018-12-09T20:58:49.425Z,5.10
2018-12-09T21:01:17.150Z,5.10
2018-12-09T21:03:45.051Z,5.00
2018-12-09T21:06:12.769Z,5.00
2018-12-09T21:08:40.506Z,5.00
2018-12-09T21:11:08.309Z,5.00
2018-12-09T21:13:36.101Z,5.00
2018-12-09T21:16:04.032Z,5.10
2018-12-09T21:18:31.966Z,5.10
2018-12-09T21:20:59.697Z,5.10
2018-12-09T21:23:27.634Z,5.10
2018-12-09T21:25:55.337Z,5.00
2018-12-09T21:28:23.177Z,5.00
2018-12-09T21:30:50.925Z,5.00
2018-12-09T21:33:18.752Z,5.00
2018-12-09T21:35:46.480Z,4.90
2018-12-09T21:38:14.339Z,4.90
2018-12-09T21:40:42.042Z,4.90
2018-12-09T21:43:09.918Z,4.90
2018-12-09T21:45:37.672Z,4.80
2018-12-09T21:48:05.475Z,4.90
2018-12-09T21:50:33.201Z,5.00
2018-12-09T21:53:01.007Z,5.00
2018-12-09T21:55:28.851Z,5.10
2018-12-09T21:57:56.583Z,5.20
2018-12-09T22:00:24.380Z,5.30
2018-12-09T22:02:52.171Z,5.40
2018-12-09T22:05:19.881Z,5.40
2018-12-09T22:07:47.616Z,5.40
2018-12-09T22:10:15.360Z,5.40
2018-12-09T22:12:43.220Z,5.40
2018-12-09T22:15:11.078Z,5.40
2018-12-09T22:17:39.083Z,5.50
2018-12-09T22:20:06.890Z,5.50
2018-12-09T22:22:34.726Z,5.50
2018-12-09T22:25:02.417Z,5.50
2018-12-09T22:27:30.226Z,5.50
2018-12-09T22:29:58.007Z,5.50
2018-12-09T22:32:26.163Z,5.40
2018-12-09T22:34:53.877Z,5.40
2018-12-09T22:37:21.741Z,5.30
2018-12-09T22:39:49.486Z,5.30
2018-12-09T22:42:17.319Z,5.30
2018-12-09T22:44:45.129Z,5.30
2018-12-09T22:47:12.846Z,5.30
2018-12-09T22:49:40.570Z,5.30
2018-12-09T22:52:08.287Z,5.30
2018-12-09T22:54:36.113Z,5.30
2018-12-09T22:57:03.936Z,5.30
2018-12-09T22:59:31.810Z,5.40
2018-12-09T23:02:05.364Z,5.50
2018-12-09T23:04:33.277Z,5.40
2018-12-09T23:07:06.726Z,5.50
2018-12-09T23:09:34.470Z,5.50
2018-12-09T23:12:02.157Z,5.60
2018-12-09T23:14:30.021Z,5.50
2018-12-09T23:16:57.786Z,5.50
2018-12-09T23:19:25.629Z,5.40
2018-12-09T23:21:53.428Z,5.30
2018-12-09T23:24:21.280Z,5.30
2018-12-09T23:26:49.087Z,5.30
2018-12-09T23:29:16.916Z,5.30
2018-12-09T23:31:44.741Z,5.30
2018-12-09T23:34:12.541Z,5.20
2018-12-09T23:36:40.695Z,5.20
2018-12-09T23:39:08.986Z,5.30
2018-12-09T23:41:37.363Z,5.30
2018-12-09T23:44:05.876Z,5.40
2018-12-09T23:46:34.130Z,5.40
2018-12-09T23:49:02.477Z,5.40
2018-12-09T23:51:30.868Z,5.40
2018-12-09T23:53:59.280Z,5.40
2018-12-09T23:56:27.589Z,5.40
2018-12-09T23:58:55.829Z,5.40
